sensor_id;sensor_type;location;lat;lon;timestamp;P1;durP1;ratioP1;P2;durP2;ratioP2
30303;SDS011;17112;48.636;10.152;2023-04-16T00:02:00;1.52;;;0.93;;
30303;SDS011;17112;48.636;10.152;2023-04-16T00:04:26;2.63;;;1.30;;
30303;SDS011;17112;48.636;10.152;2023-04-16T00:06:52;4.15;;;2.35;;
30303;SDS011;17112;48.636;10.152;2023-04-16T00:09:17;8.80;;;2.90;;
30303;SDS011;17112;48.636;10.152;2023-04-16T00:11:43;4.22;;;1.83;;
30303;SDS011;17112;48.636;10.152;2023-04-16T00:14:08;3.40;;;1.67;;
30303;SDS011;17112;48.636;10.152;2023-04-16T00:16:34;5.60;;;2.78;;
30303;SDS011;17112;48.636;10.152;2023-04-16T00:19:00;6.55;;;3.22;;
30303;SDS011;17112;48.636;10.152;2023-04-16T00:21:26;5.53;;;2.80;;
30303;SDS011;17112;48.636;10.152;2023-04-16T00:23:52;3.67;;;2.35;;
30303;SDS011;17112;48.636;10.152;2023-04-16T00:26:18;4.18;;;1.65;;
30303;SDS011;17112;48.636;10.152;2023-04-16T00:28:44;2.00;;;1.20;;
30303;SDS011;17112;48.636;10.152;2023-04-16T00:31:10;2.28;;;1.10;;
30303;SDS011;17112;48.636;10.152;2023-04-16T00:33:35;1.10;;;1.00;;
30303;SDS011;17112;48.636;10.152;2023-04-16T00:36:01;0.80;;;0.80;;
30303;SDS011;17112;48.636;10.152;2023-04-16T00:38:27;0.90;;;0.90;;
30303;SDS011;17112;48.636;10.152;2023-04-16T00:40:54;2.83;;;0.90;;
30303;SDS011;17112;48.636;10.152;2023-04-16T00:43:23;0.80;;;0.80;;
30303;SDS011;17112;48.636;10.152;2023-04-16T00:45:49;1.00;;;0.70;;
30303;SDS011;17112;48.636;10.152;2023-04-16T00:48:20;1.08;;;0.90;;
30303;SDS011;17112;48.636;10.152;2023-04-16T00:50:46;1.00;;;0.80;;
30303;SDS011;17112;48.636;10.152;2023-04-16T00:53:13;0.82;;;0.80;;
30303;SDS011;17112;48.636;10.152;2023-04-16T00:55:39;1.23;;;0.90;;
30303;SDS011;17112;48.636;10.152;2023-04-16T00:58:05;1.38;;;1.27;;
30303;SDS011;17112;48.636;10.152;2023-04-16T01:00:30;1.15;;;1.00;;
30303;SDS011;17112;48.636;10.152;2023-04-16T01:02:56;0.90;;;0.90;;
30303;SDS011;17112;48.636;10.152;2023-04-16T01:05:24;0.73;;;0.73;;
30303;SDS011;17112;48.636;10.152;2023-04-16T01:07:50;1.73;;;1.10;;
30303;SDS011;17112;48.636;10.152;2023-04-16T01:10:16;1.23;;;1.15;;
30303;SDS011;17112;48.636;10.152;2023-04-16T01:12:41;1.42;;;1.05;;
30303;SDS011;17112;48.636;10.152;2023-04-16T01:15:07;1.33;;;1.23;;
30303;SDS011;17112;48.636;10.152;2023-04-16T01:17:33;1.10;;;1.00;;
30303;SDS011;17112;48.636;10.152;2023-04-16T01:19:59;1.38;;;1.27;;
30303;SDS011;17112;48.636;10.152;2023-04-16T01:22:25;1.20;;;1.10;;
30303;SDS011;17112;48.636;10.152;2023-04-16T01:24:54;1.83;;;1.27;;
30303;SDS011;17112;48.636;10.152;2023-04-16T01:27:19;1.20;;;1.10;;
30303;SDS011;17112;48.636;10.152;2023-04-16T01:29:45;1.17;;;0.85;;
30303;SDS011;17112;48.636;10.152;2023-04-16T01:32:11;1.13;;;0.93;;
30303;SDS011;17112;48.636;10.152;2023-04-16T01:34:36;0.98;;;0.98;;
30303;SDS011;17112;48.636;10.152;2023-04-16T01:37:02;1.77;;;1.00;;
30303;SDS011;17112;48.636;10.152;2023-04-16T01:39:28;0.90;;;0.90;;
30303;SDS011;17112;48.636;10.152;2023-04-16T01:41:53;1.40;;;1.15;;
30303;SDS011;17112;48.636;10.152;2023-04-16T01:44:19;2.00;;;1.27;;
30303;SDS011;17112;48.636;10.152;2023-04-16T01:46:47;1.13;;;1.00;;
30303;SDS011;17112;48.636;10.152;2023-04-16T01:49:12;0.80;;;0.80;;
30303;SDS011;17112;48.636;10.152;2023-04-16T01:51:39;0.85;;;0.85;;
30303;SDS011;17112;48.636;10.152;2023-04-16T01:54:06;1.10;;;0.93;;
30303;SDS011;17112;48.636;10.152;2023-04-16T01:56:32;0.70;;;0.70;;
30303;SDS011;17112;48.636;10.152;2023-04-16T01:58:57;0.95;;;0.85;;
30303;SDS011;17112;48.636;10.152;2023-04-16T02:01:23;1.35;;;0.80;;
30303;SDS011;17112;48.636;10.152;2023-04-16T02:03:50;0.80;;;0.80;;
30303;SDS011;17112;48.636;10.152;2023-04-16T02:06:16;1.10;;;0.82;;
30303;SDS011;17112;48.636;10.152;2023-04-16T02:08:41;1.40;;;0.82;;
30303;SDS011;17112;48.636;10.152;2023-04-16T02:11:07;0.95;;;0.93;;
30303;SDS011;17112;48.636;10.152;2023-04-16T02:13:33;1.13;;;0.80;;
30303;SDS011;17112;48.636;10.152;2023-04-16T02:15:58;1.17;;;0.98;;
30303;SDS011;17112;48.636;10.152;2023-04-16T02:18:24;1.98;;;0.93;;
30303;SDS011;17112;48.636;10.152;2023-04-16T02:20:50;2.10;;;1.13;;
30303;SDS011;17112;48.636;10.152;2023-04-16T02:23:16;1.48;;;1.00;;
30303;SDS011;17112;48.636;10.152;2023-04-16T02:25:42;2.00;;;1.10;;
30303;SDS011;17112;48.636;10.152;2023-04-16T02:28:09;1.55;;;1.30;;
30303;SDS011;17112;48.636;10.152;2023-04-16T02:30:38;1.02;;;1.02;;
30303;SDS011;17112;48.636;10.152;2023-04-16T02:33:04;0.77;;;0.77;;
30303;SDS011;17112;48.636;10.152;2023-04-16T02:35:34;1.40;;;1.20;;
30303;SDS011;17112;48.636;10.152;2023-04-16T02:38:00;1.27;;;1.17;;
30303;SDS011;17112;48.636;10.152;2023-04-16T02:40:29;1.25;;;1.15;;
30303;SDS011;17112;48.636;10.152;2023-04-16T02:42:57;3.20;;;1.55;;
30303;SDS011;17112;48.636;10.152;2023-04-16T02:45:23;1.50;;;1.05;;
30303;SDS011;17112;48.636;10.152;2023-04-16T02:47:49;5.72;;;1.30;;
30303;SDS011;17112;48.636;10.152;2023-04-16T02:50:16;1.17;;;1.08;;
30303;SDS011;17112;48.636;10.152;2023-04-16T02:52:41;1.40;;;1.30;;
30303;SDS011;17112;48.636;10.152;2023-04-16T02:55:07;1.33;;;1.23;;
30303;SDS011;17112;48.636;10.152;2023-04-16T02:57:34;1.25;;;1.15;;
30303;SDS011;17112;48.636;10.152;2023-04-16T02:59:59;1.63;;;1.33;;
30303;SDS011;17112;48.636;10.152;2023-04-16T03:02:25;1.30;;;1.20;;
30303;SDS011;17112;48.636;10.152;2023-04-16T03:04:51;1.30;;;1.20;;
30303;SDS011;17112;48.636;10.152;2023-04-16T03:07:17;1.40;;;1.30;;
30303;SDS011;17112;48.636;10.152;2023-04-16T03:09:43;1.30;;;1.20;;
30303;SDS011;17112;48.636;10.152;2023-04-16T03:12:09;1.77;;;1.40;;
30303;SDS011;17112;48.636;10.152;2023-04-16T03:14:35;1.67;;;1.35;;
30303;SDS011;17112;48.636;10.152;2023-04-16T03:17:00;1.08;;;1.02;;
30303;SDS011;17112;48.636;10.152;2023-04-16T03:19:26;1.23;;;1.17;;
30303;SDS011;17112;48.636;10.152;2023-04-16T03:21:52;1.90;;;1.45;;
30303;SDS011;17112;48.636;10.152;2023-04-16T03:24:17;1.38;;;1.27;;
30303;SDS011;17112;48.636;10.152;2023-04-16T03:26:43;1.38;;;1.25;;
30303;SDS011;17112;48.636;10.152;2023-04-16T03:29:09;1.60;;;1.15;;
30303;SDS011;17112;48.636;10.152;2023-04-16T03:31:34;1.60;;;1.50;;
30303;SDS011;17112;48.636;10.152;2023-04-16T03:34:00;1.42;;;1.33;;
30303;SDS011;17112;48.636;10.152;2023-04-16T03:36:26;2.20;;;1.33;;
30303;SDS011;17112;48.636;10.152;2023-04-16T03:38:52;1.63;;;1.52;;
30303;SDS011;17112;48.636;10.152;2023-04-16T03:41:17;1.83;;;1.73;;
30303;SDS011;17112;48.636;10.152;2023-04-16T03:43:43;4.55;;;1.83;;
30303;SDS011;17112;48.636;10.152;2023-04-16T03:46:09;1.60;;;1.50;;
30303;SDS011;17112;48.636;10.152;2023-04-16T03:48:35;1.67;;;1.58;;
30303;SDS011;17112;48.636;10.152;2023-04-16T03:51:01;2.05;;;1.60;;
30303;SDS011;17112;48.636;10.152;2023-04-16T03:53:27;2.03;;;1.70;;
30303;SDS011;17112;48.636;10.152;2023-04-16T03:55:52;1.42;;;1.33;;
30303;SDS011;17112;48.636;10.152;2023-04-16T03:58:18;1.45;;;1.35;;
30303;SDS011;17112;48.636;10.152;2023-04-16T04:00:44;4.85;;;3.05;;
30303;SDS011;17112;48.636;10.152;2023-04-16T04:03:10;4.57;;;3.30;;
30303;SDS011;17112;48.636;10.152;2023-04-16T04:05:36;2.33;;;1.67;;
30303;SDS011;17112;48.636;10.152;2023-04-16T04:08:05;1.70;;;1.42;;
30303;SDS011;17112;48.636;10.152;2023-04-16T04:10:31;1.50;;;1.33;;
30303;SDS011;17112;48.636;10.152;2023-04-16T04:12:58;1.77;;;1.58;;
30303;SDS011;17112;48.636;10.152;2023-04-16T04:15:24;1.83;;;1.27;;
30303;SDS011;17112;48.636;10.152;2023-04-16T04:17:50;1.67;;;1.40;;
30303;SDS011;17112;48.636;10.152;2023-04-16T04:20:15;1.60;;;1.50;;
30303;SDS011;17112;48.636;10.152;2023-04-16T04:22:41;1.40;;;1.30;;
30303;SDS011;17112;48.636;10.152;2023-04-16T04:25:07;3.55;;;1.10;;
30303;SDS011;17112;48.636;10.152;2023-04-16T04:27:34;1.35;;;1.25;;
30303;SDS011;17112;48.636;10.152;2023-04-16T04:30:00;1.08;;;1.00;;
30303;SDS011;17112;48.636;10.152;2023-04-16T04:32:26;1.10;;;1.00;;
30303;SDS011;17112;48.636;10.152;2023-04-16T04:34:51;1.75;;;0.80;;
30303;SDS011;17112;48.636;10.152;2023-04-16T04:37:17;0.80;;;0.80;;
30303;SDS011;17112;48.636;10.152;2023-04-16T04:39:45;2.33;;;0.70;;
30303;SDS011;17112;48.636;10.152;2023-04-16T04:42:10;11.30;;;4.70;;
30303;SDS011;17112;48.636;10.152;2023-04-16T04:44:36;8.18;;;3.30;;
30303;SDS011;17112;48.636;10.152;2023-04-16T04:47:02;5.32;;;2.50;;
30303;SDS011;17112;48.636;10.152;2023-04-16T04:49:27;5.57;;;2.30;;
30303;SDS011;17112;48.636;10.152;2023-04-16T04:51:54;4.63;;;1.80;;
30303;SDS011;17112;48.636;10.152;2023-04-16T04:54:20;2.00;;;1.20;;
30303;SDS011;17112;48.636;10.152;2023-04-16T04:56:45;1.90;;;1.15;;
30303;SDS011;17112;48.636;10.152;2023-04-16T04:59:11;1.90;;;1.13;;
30303;SDS011;17112;48.636;10.152;2023-04-16T05:01:37;1.92;;;0.90;;
30303;SDS011;17112;48.636;10.152;2023-04-16T05:04:03;0.82;;;0.70;;
30303;SDS011;17112;48.636;10.152;2023-04-16T05:06:29;0.70;;;0.70;;
30303;SDS011;17112;48.636;10.152;2023-04-16T05:08:55;1.75;;;0.60;;
30303;SDS011;17112;48.636;10.152;2023-04-16T05:11:21;0.93;;;0.70;;
30303;SDS011;17112;48.636;10.152;2023-04-16T05:13:47;2.65;;;1.05;;
30303;SDS011;17112;48.636;10.152;2023-04-16T05:16:12;0.70;;;0.45;;
30303;SDS011;17112;48.636;10.152;2023-04-16T05:18:38;0.50;;;0.50;;
30303;SDS011;17112;48.636;10.152;2023-04-16T05:21:04;1.88;;;0.60;;
30303;SDS011;17112;48.636;10.152;2023-04-16T05:23:31;0.52;;;0.50;;
30303;SDS011;17112;48.636;10.152;2023-04-16T05:25:56;1.27;;;0.55;;
30303;SDS011;17112;48.636;10.152;2023-04-16T05:28:22;1.65;;;0.50;;
30303;SDS011;17112;48.636;10.152;2023-04-16T05:30:48;2.40;;;0.60;;
30303;SDS011;17112;48.636;10.152;2023-04-16T05:33:13;0.80;;;0.60;;
30303;SDS011;17112;48.636;10.152;2023-04-16T05:35:39;0.60;;;0.60;;
30303;SDS011;17112;48.636;10.152;2023-04-16T05:38:05;2.47;;;0.60;;
30303;SDS011;17112;48.636;10.152;2023-04-16T05:40:30;0.65;;;0.65;;
30303;SDS011;17112;48.636;10.152;2023-04-16T05:42:56;0.82;;;0.60;;
30303;SDS011;17112;48.636;10.152;2023-04-16T05:45:22;0.50;;;0.50;;
30303;SDS011;17112;48.636;10.152;2023-04-16T05:47:47;0.60;;;0.60;;
30303;SDS011;17112;48.636;10.152;2023-04-16T05:50:13;0.60;;;0.50;;
30303;SDS011;17112;48.636;10.152;2023-04-16T05:52:39;0.47;;;0.47;;
30303;SDS011;17112;48.636;10.152;2023-04-16T05:55:04;0.50;;;0.50;;
30303;SDS011;17112;48.636;10.152;2023-04-16T05:57:31;1.88;;;0.50;;
30303;SDS011;17112;48.636;10.152;2023-04-16T05:59:57;0.40;;;0.40;;
30303;SDS011;17112;48.636;10.152;2023-04-16T06:02:23;0.50;;;0.50;;
30303;SDS011;17112;48.636;10.152;2023-04-16T06:04:49;1.15;;;0.70;;
30303;SDS011;17112;48.636;10.152;2023-04-16T06:07:14;1.17;;;0.75;;
30303;SDS011;17112;48.636;10.152;2023-04-16T06:09:40;0.95;;;0.60;;
30303;SDS011;17112;48.636;10.152;2023-04-16T06:12:06;0.65;;;0.55;;
30303;SDS011;17112;48.636;10.152;2023-04-16T06:14:31;0.68;;;0.68;;
30303;SDS011;17112;48.636;10.152;2023-04-16T06:16:57;0.60;;;0.60;;
30303;SDS011;17112;48.636;10.152;2023-04-16T06:19:22;0.80;;;0.68;;
30303;SDS011;17112;48.636;10.152;2023-04-16T06:21:48;0.95;;;0.60;;
30303;SDS011;17112;48.636;10.152;2023-04-16T06:24:14;0.60;;;0.60;;
30303;SDS011;17112;48.636;10.152;2023-04-16T06:26:42;0.70;;;0.70;;
30303;SDS011;17112;48.636;10.152;2023-04-16T06:29:08;1.55;;;0.57;;
30303;SDS011;17112;48.636;10.152;2023-04-16T06:31:33;0.70;;;0.70;;
30303;SDS011;17112;48.636;10.152;2023-04-16T06:33:59;0.60;;;0.60;;
30303;SDS011;17112;48.636;10.152;2023-04-16T06:36:25;0.90;;;0.75;;
30303;SDS011;17112;48.636;10.152;2023-04-16T06:38:52;0.57;;;0.57;;
30303;SDS011;17112;48.636;10.152;2023-04-16T06:41:18;0.70;;;0.70;;
30303;SDS011;17112;48.636;10.152;2023-04-16T06:43:46;0.70;;;0.70;;
30303;SDS011;17112;48.636;10.152;2023-04-16T06:46:12;0.60;;;0.60;;
30303;SDS011;17112;48.636;10.152;2023-04-16T06:48:38;0.80;;;0.80;;
30303;SDS011;17112;48.636;10.152;2023-04-16T06:51:03;0.68;;;0.50;;
30303;SDS011;17112;48.636;10.152;2023-04-16T06:53:29;0.90;;;0.60;;
30303;SDS011;17112;48.636;10.152;2023-04-16T06:55:55;0.60;;;0.60;;
30303;SDS011;17112;48.636;10.152;2023-04-16T06:58:21;0.60;;;0.60;;
30303;SDS011;17112;48.636;10.152;2023-04-16T07:00:46;0.60;;;0.60;;
30303;SDS011;17112;48.636;10.152;2023-04-16T07:03:12;0.50;;;0.50;;
30303;SDS011;17112;48.636;10.152;2023-04-16T07:05:38;1.30;;;0.65;;
30303;SDS011;17112;48.636;10.152;2023-04-16T07:08:04;0.52;;;0.50;;
30303;SDS011;17112;48.636;10.152;2023-04-16T07:10:29;0.50;;;0.50;;
30303;SDS011;17112;48.636;10.152;2023-04-16T07:12:55;0.60;;;0.50;;
30303;SDS011;17112;48.636;10.152;2023-04-16T07:15:21;0.50;;;0.50;;
30303;SDS011;17112;48.636;10.152;2023-04-16T07:17:47;0.70;;;0.70;;
30303;SDS011;17112;48.636;10.152;2023-04-16T07:20:12;0.65;;;0.60;;
30303;SDS011;17112;48.636;10.152;2023-04-16T07:22:38;0.50;;;0.50;;
30303;SDS011;17112;48.636;10.152;2023-04-16T07:25:04;0.60;;;0.60;;
30303;SDS011;17112;48.636;10.152;2023-04-16T07:27:30;0.60;;;0.60;;
30303;SDS011;17112;48.636;10.152;2023-04-16T07:29:56;0.70;;;0.70;;
30303;SDS011;17112;48.636;10.152;2023-04-16T07:32:21;0.70;;;0.70;;
30303;SDS011;17112;48.636;10.152;2023-04-16T07:34:47;0.60;;;0.60;;
30303;SDS011;17112;48.636;10.152;2023-04-16T07:37:13;0.80;;;0.60;;
30303;SDS011;17112;48.636;10.152;2023-04-16T07:39:38;0.90;;;0.75;;
30303;SDS011;17112;48.636;10.152;2023-04-16T07:42:04;0.75;;;0.75;;
30303;SDS011;17112;48.636;10.152;2023-04-16T07:44:30;0.90;;;0.80;;
30303;SDS011;17112;48.636;10.152;2023-04-16T07:46:57;0.70;;;0.70;;
30303;SDS011;17112;48.636;10.152;2023-04-16T07:49:23;0.98;;;0.88;;
30303;SDS011;17112;48.636;10.152;2023-04-16T07:51:49;0.80;;;0.80;;
30303;SDS011;17112;48.636;10.152;2023-04-16T07:54:14;0.80;;;0.80;;
30303;SDS011;17112;48.636;10.152;2023-04-16T07:56:40;0.70;;;0.70;;
30303;SDS011;17112;48.636;10.152;2023-04-16T07:59:06;1.20;;;1.00;;
30303;SDS011;17112;48.636;10.152;2023-04-16T08:01:31;1.67;;;1.17;;
30303;SDS011;17112;48.636;10.152;2023-04-16T08:03:57;1.20;;;1.10;;
30303;SDS011;17112;48.636;10.152;2023-04-16T08:06:23;1.33;;;1.23;;
30303;SDS011;17112;48.636;10.152;2023-04-16T08:08:50;1.33;;;1.13;;
30303;SDS011;17112;48.636;10.152;2023-04-16T08:11:16;1.05;;;1.00;;
30303;SDS011;17112;48.636;10.152;2023-04-16T08:13:41;4.55;;;1.60;;
30303;SDS011;17112;48.636;10.152;2023-04-16T08:16:07;1.00;;;1.00;;
30303;SDS011;17112;48.636;10.152;2023-04-16T08:18:33;1.20;;;1.00;;
30303;SDS011;17112;48.636;10.152;2023-04-16T08:20:58;1.63;;;1.15;;
30303;SDS011;17112;48.636;10.152;2023-04-16T08:23:24;3.90;;;2.20;;
30303;SDS011;17112;48.636;10.152;2023-04-16T08:25:50;1.60;;;1.48;;
30303;SDS011;17112;48.636;10.152;2023-04-16T08:28:15;1.30;;;1.00;;
30303;SDS011;17112;48.636;10.152;2023-04-16T08:30:41;1.40;;;1.30;;
30303;SDS011;17112;48.636;10.152;2023-04-16T08:33:07;1.23;;;1.10;;
30303;SDS011;17112;48.636;10.152;2023-04-16T08:35:33;1.70;;;1.15;;
30303;SDS011;17112;48.636;10.152;2023-04-16T08:37:58;2.45;;;1.33;;
30303;SDS011;17112;48.636;10.152;2023-04-16T08:40:25;1.20;;;1.10;;
30303;SDS011;17112;48.636;10.152;2023-04-16T08:42:53;1.10;;;1.00;;
30303;SDS011;17112;48.636;10.152;2023-04-16T08:45:22;1.33;;;1.20;;
30303;SDS011;17112;48.636;10.152;2023-04-16T08:47:50;1.20;;;1.08;;
30303;SDS011;17112;48.636;10.152;2023-04-16T08:50:18;2.78;;;1.45;;
30303;SDS011;17112;48.636;10.152;2023-04-16T08:52:57;1.17;;;1.07;;
30303;SDS011;17112;48.636;10.152;2023-04-16T08:55:31;1.98;;;1.20;;
30303;SDS011;17112;48.636;10.152;2023-04-16T08:57:59;1.20;;;1.10;;
30303;SDS011;17112;48.636;10.152;2023-04-16T09:00:28;1.00;;;0.90;;
30303;SDS011;17112;48.636;10.152;2023-04-16T09:02:55;1.10;;;1.00;;
30303;SDS011;17112;48.636;10.152;2023-04-16T09:05:21;1.20;;;1.10;;
30303;SDS011;17112;48.636;10.152;2023-04-16T09:07:49;1.10;;;0.95;;
30303;SDS011;17112;48.636;10.152;2023-04-16T09:10:18;0.82;;;0.82;;
30303;SDS011;17112;48.636;10.152;2023-04-16T09:12:44;1.00;;;1.00;;
30303;SDS011;17112;48.636;10.152;2023-04-16T09:15:11;1.10;;;1.00;;
30303;SDS011;17112;48.636;10.152;2023-04-16T09:17:37;1.05;;;1.00;;
30303;SDS011;17112;48.636;10.152;2023-04-16T09:20:04;0.93;;;0.93;;
30303;SDS011;17112;48.636;10.152;2023-04-16T09:22:33;0.80;;;0.80;;
30303;SDS011;17112;48.636;10.152;2023-04-16T09:24:59;1.02;;;0.90;;
30303;SDS011;17112;48.636;10.152;2023-04-16T09:27:25;1.02;;;0.95;;
30303;SDS011;17112;48.636;10.152;2023-04-16T09:29:51;1.10;;;1.00;;
30303;SDS011;17112;48.636;10.152;2023-04-16T09:32:16;1.05;;;0.95;;
30303;SDS011;17112;48.636;10.152;2023-04-16T09:34:56;1.73;;;1.10;;
30303;SDS011;17112;48.636;10.152;2023-04-16T09:37:26;1.67;;;1.30;;
30303;SDS011;17112;48.636;10.152;2023-04-16T09:40:00;1.30;;;1.20;;
30303;SDS011;17112;48.636;10.152;2023-04-16T09:42:28;1.58;;;1.27;;
30303;SDS011;17112;48.636;10.152;2023-04-16T09:44:55;1.95;;;1.60;;
30303;SDS011;17112;48.636;10.152;2023-04-16T09:47:24;1.98;;;1.58;;
30303;SDS011;17112;48.636;10.152;2023-04-16T09:49:50;1.33;;;1.23;;
30303;SDS011;17112;48.636;10.152;2023-04-16T09:52:19;1.40;;;1.23;;
30303;SDS011;17112;48.636;10.152;2023-04-16T09:57:18;10.60;;;1.70;;
30303;SDS011;17112;48.636;10.152;2023-04-16T09:59:46;2.05;;;1.65;;
30303;SDS011;17112;48.636;10.152;2023-04-16T10:02:33;3.17;;;2.08;;
30303;SDS011;17112;48.636;10.152;2023-04-16T10:05:00;1.63;;;1.52;;
30303;SDS011;17112;48.636;10.152;2023-04-16T10:07:27;2.47;;;1.83;;
30303;SDS011;17112;48.636;10.152;2023-04-16T10:09:54;2.00;;;1.80;;
30303;SDS011;17112;48.636;10.152;2023-04-16T10:12:20;1.90;;;1.70;;
30303;SDS011;17112;48.636;10.152;2023-04-16T10:14:46;2.28;;;2.03;;
30303;SDS011;17112;48.636;10.152;2023-04-16T10:17:11;3.47;;;2.20;;
30303;SDS011;17112;48.636;10.152;2023-04-16T10:19:37;2.42;;;1.98;;
30303;SDS011;17112;48.636;10.152;2023-04-16T10:22:04;2.47;;;2.00;;
30303;SDS011;17112;48.636;10.152;2023-04-16T10:24:31;2.00;;;1.65;;
30303;SDS011;17112;48.636;10.152;2023-04-16T10:26:57;2.35;;;1.73;;
30303;SDS011;17112;48.636;10.152;2023-04-16T10:29:24;7.97;;;4.32;;
30303;SDS011;17112;48.636;10.152;2023-04-16T10:31:52;4.00;;;1.98;;
30303;SDS011;17112;48.636;10.152;2023-04-16T10:34:19;1.60;;;1.50;;
30303;SDS011;17112;48.636;10.152;2023-04-16T10:36:52;1.50;;;1.30;;
30303;SDS011;17112;48.636;10.152;2023-04-16T10:39:22;1.75;;;1.42;;
30303;SDS011;17112;48.636;10.152;2023-04-16T10:42:05;1.73;;;1.30;;
30303;SDS011;17112;48.636;10.152;2023-04-16T10:44:33;1.38;;;1.27;;
30303;SDS011;17112;48.636;10.152;2023-04-16T10:47:00;2.13;;;1.48;;
30303;SDS011;17112;48.636;10.152;2023-04-16T10:49:25;1.92;;;1.10;;
30303;SDS011;17112;48.636;10.152;2023-04-16T10:51:58;1.30;;;1.10;;
30303;SDS011;17112;48.636;10.152;2023-04-16T10:54:26;0.93;;;0.93;;
30303;SDS011;17112;48.636;10.152;2023-04-16T10:56:57;1.38;;;1.10;;
30303;SDS011;17112;48.636;10.152;2023-04-16T10:59:23;1.00;;;1.00;;
30303;SDS011;17112;48.636;10.152;2023-04-16T11:01:54;2.90;;;1.20;;
30303;SDS011;17112;48.636;10.152;2023-04-16T11:12:33;1.98;;;1.58;;
30303;SDS011;17112;48.636;10.152;2023-04-16T11:15:11;1.23;;;1.13;;
30303;SDS011;17112;48.636;10.152;2023-04-16T11:17:44;1.30;;;1.20;;
30303;SDS011;17112;48.636;10.152;2023-04-16T11:20:15;1.30;;;1.13;;
30303;SDS011;17112;48.636;10.152;2023-04-16T11:22:42;0.85;;;0.80;;
30303;SDS011;17112;48.636;10.152;2023-04-16T11:25:09;1.27;;;1.10;;
30303;SDS011;17112;48.636;10.152;2023-04-16T11:27:35;1.10;;;0.90;;
30303;SDS011;17112;48.636;10.152;2023-04-16T11:30:02;1.00;;;0.90;;
30303;SDS011;17112;48.636;10.152;2023-04-16T11:32:32;1.35;;;1.10;;
30303;SDS011;17112;48.636;10.152;2023-04-16T11:34:59;1.65;;;1.10;;
30303;SDS011;17112;48.636;10.152;2023-04-16T11:37:41;1.10;;;1.00;;
30303;SDS011;17112;48.636;10.152;2023-04-16T11:40:07;1.30;;;1.20;;
30303;SDS011;17112;48.636;10.152;2023-04-16T11:42:34;0.88;;;0.88;;
30303;SDS011;17112;48.636;10.152;2023-04-16T11:45:08;1.48;;;0.90;;
30303;SDS011;17112;48.636;10.152;2023-04-16T11:47:42;1.00;;;1.00;;
30303;SDS011;17112;48.636;10.152;2023-04-16T11:50:23;0.90;;;0.90;;
30303;SDS011;17112;48.636;10.152;2023-04-16T11:52:50;1.30;;;0.90;;
30303;SDS011;17112;48.636;10.152;2023-04-16T11:55:17;1.23;;;1.13;;
30303;SDS011;17112;48.636;10.152;2023-04-16T11:57:43;1.92;;;1.40;;
30303;SDS011;17112;48.636;10.152;2023-04-16T12:00:10;2.75;;;1.00;;
30303;SDS011;17112;48.636;10.152;2023-04-16T12:05:07;2.47;;;1.08;;
30303;SDS011;17112;48.636;10.152;2023-04-16T12:07:53;1.52;;;1.42;;
30303;SDS011;17112;48.636;10.152;2023-04-16T12:10:19;1.80;;;1.70;;
30303;SDS011;17112;48.636;10.152;2023-04-16T12:12:45;2.22;;;1.80;;
30303;SDS011;17112;48.636;10.152;2023-04-16T12:15:10;1.70;;;1.35;;
30303;SDS011;17112;48.636;10.152;2023-04-16T12:17:36;1.70;;;1.40;;
30303;SDS011;17112;48.636;10.152;2023-04-16T12:20:03;1.63;;;1.40;;
30303;SDS011;17112;48.636;10.152;2023-04-16T12:22:37;1.42;;;1.33;;
30303;SDS011;17112;48.636;10.152;2023-04-16T12:27:41;2.03;;;1.77;;
30303;SDS011;17112;48.636;10.152;2023-04-16T12:30:15;1.52;;;1.40;;
30303;SDS011;17112;48.636;10.152;2023-04-16T12:32:48;2.22;;;1.60;;
30303;SDS011;17112;48.636;10.152;2023-04-16T12:35:30;1.63;;;1.27;;
30303;SDS011;17112;48.636;10.152;2023-04-16T12:37:58;1.35;;;1.25;;
30303;SDS011;17112;48.636;10.152;2023-04-16T12:40:24;1.42;;;1.33;;
30303;SDS011;17112;48.636;10.152;2023-04-16T12:42:50;1.70;;;1.30;;
30303;SDS011;17112;48.636;10.152;2023-04-16T12:45:16;2.05;;;1.10;;
30303;SDS011;17112;48.636;10.152;2023-04-16T12:47:41;1.27;;;1.05;;
30303;SDS011;17112;48.636;10.152;2023-04-16T12:50:07;3.35;;;1.60;;
30303;SDS011;17112;48.636;10.152;2023-04-16T12:52:33;1.80;;;1.60;;
30303;SDS011;17112;48.636;10.152;2023-04-16T12:55:02;1.30;;;1.00;;
30303;SDS011;17112;48.636;10.152;2023-04-16T12:57:28;1.27;;;1.17;;
30303;SDS011;17112;48.636;10.152;2023-04-16T12:59:54;2.08;;;1.00;;
30303;SDS011;17112;48.636;10.152;2023-04-16T13:02:21;1.08;;;0.98;;
30303;SDS011;17112;48.636;10.152;2023-04-16T13:04:47;1.85;;;1.15;;
30303;SDS011;17112;48.636;10.152;2023-04-16T13:07:13;2.40;;;1.50;;
30303;SDS011;17112;48.636;10.152;2023-04-16T13:09:39;1.17;;;1.08;;
30303;SDS011;17112;48.636;10.152;2023-04-16T13:12:05;0.93;;;0.93;;
30303;SDS011;17112;48.636;10.152;2023-04-16T13:14:31;1.48;;;1.20;;
30303;SDS011;17112;48.636;10.152;2023-04-16T13:16:57;1.45;;;1.05;;
30303;SDS011;17112;48.636;10.152;2023-04-16T13:19:22;1.20;;;1.10;;
30303;SDS011;17112;48.636;10.152;2023-04-16T13:21:48;0.90;;;0.90;;
30303;SDS011;17112;48.636;10.152;2023-04-16T13:24:14;1.27;;;1.17;;
30303;SDS011;17112;48.636;10.152;2023-04-16T13:26:39;1.27;;;1.17;;
30303;SDS011;17112;48.636;10.152;2023-04-16T13:29:06;0.80;;;0.80;;
30303;SDS011;17112;48.636;10.152;2023-04-16T13:31:32;6.22;;;1.55;;
30303;SDS011;17112;48.636;10.152;2023-04-16T13:33:57;1.88;;;1.40;;
30303;SDS011;17112;48.636;10.152;2023-04-16T13:36:23;1.02;;;0.95;;
30303;SDS011;17112;48.636;10.152;2023-04-16T13:38:49;2.90;;;0.82;;
30303;SDS011;17112;48.636;10.152;2023-04-16T13:41:14;1.13;;;1.02;;
30303;SDS011;17112;48.636;10.152;2023-04-16T13:43:40;1.08;;;0.98;;
30303;SDS011;17112;48.636;10.152;2023-04-16T13:46:06;1.00;;;0.90;;
30303;SDS011;17112;48.636;10.152;2023-04-16T13:48:31;1.70;;;0.80;;
30303;SDS011;17112;48.636;10.152;2023-04-16T13:50:57;0.93;;;0.90;;
30303;SDS011;17112;48.636;10.152;2023-04-16T13:53:23;1.25;;;0.90;;
30303;SDS011;17112;48.636;10.152;2023-04-16T13:55:48;1.20;;;1.10;;
30303;SDS011;17112;48.636;10.152;2023-04-16T13:58:15;1.10;;;1.00;;
30303;SDS011;17112;48.636;10.152;2023-04-16T14:00:41;0.90;;;0.80;;
30303;SDS011;17112;48.636;10.152;2023-04-16T14:03:07;0.90;;;0.80;;
30303;SDS011;17112;48.636;10.152;2023-04-16T14:05:32;1.02;;;0.90;;
30303;SDS011;17112;48.636;10.152;2023-04-16T14:07:58;0.80;;;0.80;;
30303;SDS011;17112;48.636;10.152;2023-04-16T14:10:24;1.45;;;0.98;;
30303;SDS011;17112;48.636;10.152;2023-04-16T14:12:50;1.05;;;0.95;;
30303;SDS011;17112;48.636;10.152;2023-04-16T14:15:15;1.58;;;1.00;;
30303;SDS011;17112;48.636;10.152;2023-04-16T14:17:42;1.20;;;1.00;;
30303;SDS011;17112;48.636;10.152;2023-04-16T14:20:09;1.08;;;0.95;;
30303;SDS011;17112;48.636;10.152;2023-04-16T14:22:36;1.25;;;0.90;;
30303;SDS011;17112;48.636;10.152;2023-04-16T14:25:03;1.02;;;0.93;;
30303;SDS011;17112;48.636;10.152;2023-04-16T14:27:29;0.90;;;0.90;;
30303;SDS011;17112;48.636;10.152;2023-04-16T14:29:55;0.82;;;0.82;;
30303;SDS011;17112;48.636;10.152;2023-04-16T14:32:20;1.20;;;0.90;;
30303;SDS011;17112;48.636;10.152;2023-04-16T14:34:46;1.10;;;1.00;;
30303;SDS011;17112;48.636;10.152;2023-04-16T14:37:12;0.90;;;0.90;;
30303;SDS011;17112;48.636;10.152;2023-04-16T14:39:38;0.88;;;0.88;;
30303;SDS011;17112;48.636;10.152;2023-04-16T14:42:10;1.00;;;0.90;;
30303;SDS011;17112;48.636;10.152;2023-04-16T14:44:36;1.70;;;1.15;;
30303;SDS011;17112;48.636;10.152;2023-04-16T14:47:02;1.30;;;1.05;;